Time;durP1;ratioP1;P1;durP2;ratioP2;P2;SDS_P1;SDS_P2;PMS_P1;PMS_P2;Temp;Humidity;BMP_temperature;BMP_pressure;BME280_temperature;BME280_humidity;BME280_pressure;Samples;Min_cycle;Max_cycle;Signal;HPM_P1;HPM_P2
2023/09/14 00:00:57;;;;;;;6.50;2.88;;;12.90;99.90;;;;;;4990713;28;20450;-64
2023/09/14 00:03:23;;;;;;;6.13;3.20;;;12.90;99.90;;;;;;4991251;28;20047;-64
2023/09/14 00:05:50;;;;;;;6.72;3.65;;;12.80;99.90;;;;;;5008482;28;20175;-64
2023/09/14 00:08:16;;;;;;;7.28;3.10;;;12.80;99.90;;;;;;5010573;28;20046;-63
2023/09/14 00:10:43;;;;;;;7.40;3.15;;;12.70;99.90;;;;;;5010932;28;20085;-64
2023/09/14 00:13:10;;;;;;;5.55;2.72;;;12.70;99.90;;;;;;5010658;28;20140;-67
2023/09/14 00:15:39;;;;;;;6.03;3.17;;;12.60;99.90;;;;;;4998336;28;20128;-66
2023/09/14 00:18:05;;;;;;;5.70;2.70;;;12.80;99.90;;;;;;5010412;28;20050;-66
2023/09/14 00:20:31;;;;;;;7.65;3.08;;;12.70;99.90;;;;;;5010097;28;20060;-64
2023/09/14 00:22:58;;;;;;;7.25;3.00;;;12.70;99.90;;;;;;5010649;28;20350;-64
2023/09/14 00:25:25;;;;;;;6.50;3.30;;;12.70;99.90;;;;;;4996435;28;20052;-64
2023/09/14 00:27:53;;;;;;;6.68;2.80;;;12.60;99.90;;;;;;4990370;28;20580;-64
2023/09/14 00:30:20;;;;;;;7.20;3.00;;;12.60;99.90;;;;;;4991150;28;20077;-64
2023/09/14 00:32:49;;;;;;;7.72;3.20;;;12.60;99.90;;;;;;4991219;28;20054;-64
2023/09/14 00:35:18;;;;;;;8.20;3.40;;;12.50;99.90;;;;;;5003542;28;20061;-64
2023/09/14 00:37:45;;;;;;;5.85;3.42;;;12.50;99.90;;;;;;5010124;28;20050;-64
2023/09/14 00:40:14;;;;;;;6.70;3.38;;;12.50;99.90;;;;;;5010484;28;20057;-64
2023/09/14 00:42:43;;;;;;;6.95;3.25;;;12.50;99.90;;;;;;5010332;28;20100;-64
2023/09/14 00:45:15;;;;;;;10.38;3.22;;;12.50;99.90;;;;;;4997004;28;20536;-64
2023/09/14 00:47:49;;;;;;;5.40;3.13;;;12.50;99.90;;;;;;4990618;28;20057;-64
2023/09/14 00:50:17;;;;;;;6.53;3.10;;;12.60;99.90;;;;;;4991054;28;20422;-64
2023/09/14 00:52:46;;;;;;;6.30;3.10;;;12.50;99.90;;;;;;4990898;28;20065;-64
2023/09/14 00:55:17;;;;;;;5.13;3.25;;;12.50;99.90;;;;;;5002874;28;20116;-64
2023/09/14 00:57:45;;;;;;;5.93;2.63;;;12.50;99.90;;;;;;5009073;28;20371;-64
2023/09/14 01:00:12;;;;;;;8.18;3.35;;;12.40;99.90;;;;;;5013099;28;20049;-65
2023/09/14 01:02:41;;;;;;;10.55;3.58;;;12.30;99.90;;;;;;5014043;28;20061;-63
2023/09/14 01:05:08;;;;;;;9.73;3.08;;;12.30;99.90;;;;;;5002444;28;20046;-65
2023/09/14 01:07:35;;;;;;;7.65;2.70;;;12.30;99.90;;;;;;4994408;28;20418;-66
2023/09/14 01:10:04;;;;;;;6.70;3.65;;;12.30;99.90;;;;;;4994714;28;20046;-66
2023/09/14 01:12:32;;;;;;;4.95;3.03;;;12.30;99.90;;;;;;4994639;28;20120;-66
2023/09/14 01:15:19;;;;;;;6.00;3.22;;;12.30;99.90;;;;;;5003974;28;20054;-64
2023/09/14 01:18:07;;;;;;;8.90;3.60;;;12.30;99.90;;;;;;5013117;28;20141;-64
2023/09/14 01:20:51;;;;;;;5.28;3.00;;;12.30;99.90;;;;;;5014008;28;20042;-63
2023/09/14 01:23:27;;;;;;;6.40;3.40;;;12.40;99.90;;;;;;5013884;28;20105;-65
2023/09/14 01:25:55;;;;;;;7.53;3.58;;;12.30;99.90;;;;;;4996068;28;20117;-65
2023/09/14 01:28:21;;;;;;;6.13;3.53;;;12.20;99.90;;;;;;4993692;28;20065;-65
2023/09/14 01:30:47;;;;;;;5.82;3.13;;;12.20;99.90;;;;;;4993803;28;20360;-65
2023/09/14 01:33:15;;;;;;;7.35;3.65;;;12.10;99.90;;;;;;4994016;28;20486;-64
2023/09/14 01:35:45;;;;;;;5.25;3.22;;;12.00;99.90;;;;;;5008918;28;20041;-64
2023/09/14 01:38:13;;;;;;;7.43;3.55;;;12.00;99.90;;;;;;5013245;28;20042;-65
2023/09/14 01:40:42;;;;;;;6.40;3.20;;;12.00;99.90;;;;;;5013595;28;20045;-65
2023/09/14 01:43:08;;;;;;;6.97;3.42;;;11.90;99.90;;;;;;5013344;28;20104;-65
2023/09/14 01:45:35;;;;;;;7.40;3.55;;;11.90;99.90;;;;;;4998500;28;20042;-65
2023/09/14 01:48:01;;;;;;;6.30;3.50;;;12.00;99.90;;;;;;4993293;28;20050;-65
2023/09/14 01:50:28;;;;;;;8.00;3.45;;;11.90;99.90;;;;;;4994083;28;20109;-66
2023/09/14 01:52:55;;;;;;;7.03;4.30;;;11.90;99.90;;;;;;4993479;28;20065;-66
2023/09/14 01:55:21;;;;;;;7.47;3.78;;;11.90;99.90;;;;;;5006288;28;20046;-66
2023/09/14 01:57:47;;;;;;;10.20;3.53;;;11.80;99.90;;;;;;5012552;28;20050;-65
2023/09/14 02:00:15;;;;;;;8.68;3.50;;;11.80;99.90;;;;;;5012989;28;20152;-66
2023/09/14 02:02:41;;;;;;;5.97;3.53;;;11.80;99.90;;;;;;5012803;28;20062;-65
2023/09/14 02:05:08;;;;;;;8.88;3.90;;;11.70;99.90;;;;;;5001694;28;20058;-66
2023/09/14 02:07:34;;;;;;;8.63;3.85;;;11.70;99.90;;;;;;4992820;28;20057;-65
2023/09/14 02:10:00;;;;;;;8.35;3.65;;;11.70;99.90;;;;;;4992931;28;20058;-66
2023/09/14 02:12:27;;;;;;;7.00;3.80;;;11.70;99.90;;;;;;5008983;28;20064;-65
2023/09/14 02:14:53;;;;;;;5.20;3.60;;;11.80;99.90;;;;;;5002128;28;20062;-66
2023/09/14 02:17:19;;;;;;;5.25;3.70;;;11.70;99.90;;;;;;5012934;28;20045;-65
2023/09/14 02:19:45;;;;;;;5.82;3.25;;;11.70;99.90;;;;;;5012947;28;20363;-65
2023/09/14 02:22:12;;;;;;;6.18;4.05;;;11.70;99.90;;;;;;5012453;28;20046;-65
2023/09/14 02:24:38;;;;;;;8.80;3.75;;;11.70;99.90;;;;;;5006396;28;20046;-65
2023/09/14 02:27:04;;;;;;;6.95;3.40;;;11.80;99.90;;;;;;4993079;28;20046;-66
2023/09/14 02:29:30;;;;;;;5.45;3.53;;;11.60;99.90;;;;;;4992924;28;20049;-65
2023/09/14 02:31:58;;;;;;;6.80;3.50;;;11.70;99.90;;;;;;4993685;28;20047;-65
2023/09/14 02:34:24;;;;;;;6.95;3.88;;;11.70;99.90;;;;;;4997727;28;20045;-65
2023/09/14 02:36:50;;;;;;;8.30;3.92;;;11.70;99.90;;;;;;5011751;28;20065;-65
2023/09/14 02:39:17;;;;;;;4.55;3.70;;;11.70;99.90;;;;;;5012724;28;20098;-64
2023/09/14 02:41:43;;;;;;;5.32;3.70;;;11.70;99.90;;;;;;5012210;28;20482;-65
2023/09/14 02:44:09;;;;;;;5.20;3.55;;;11.70;99.90;;;;;;5009371;28;20447;-65
2023/09/14 02:46:35;;;;;;;8.20;3.85;;;11.80;99.90;;;;;;4992217;28;20069;-65
2023/09/14 02:49:02;;;;;;;4.80;3.20;;;11.80;99.90;;;;;;4992856;28;20058;-66
2023/09/14 02:51:28;;;;;;;5.25;3.10;;;11.80;99.90;;;;;;4992745;28;20050;-65
2023/09/14 02:53:54;;;;;;;7.78;3.50;;;11.90;99.90;;;;;;4992711;28;20060;-65
2023/09/14 02:56:20;;;;;;;4.88;3.20;;;11.80;99.90;;;;;;5011950;28;20045;-65
2023/09/14 02:58:47;;;;;;;6.57;3.28;;;11.90;99.90;;;;;;5010217;28;20181;-65
2023/09/14 03:01:13;;;;;;;8.90;3.38;;;11.90;99.90;;;;;;5011724;28;20119;-65
2023/09/14 03:03:39;;;;;;;5.68;3.22;;;11.90;99.90;;;;;;5011831;28;20362;-65
2023/09/14 03:06:06;;;;;;;6.10;3.30;;;11.80;99.90;;;;;;4993448;28;20046;-65
2023/09/14 03:08:32;;;;;;;5.15;3.60;;;11.80;99.90;;;;;;4991686;28;20051;-66
2023/09/14 03:11:00;;;;;;;8.18;4.15;;;11.80;99.90;;;;;;4992199;28;20057;-66
2023/09/14 03:13:26;;;;;;;6.90;4.00;;;11.90;99.90;;;;;;4991921;28;20054;-65
2023/09/14 03:15:57;;;;;;;6.63;3.58;;;11.80;99.90;;;;;;5008450;28;20068;-65
2023/09/14 03:18:23;;;;;;;5.97;3.30;;;11.70;99.90;;;;;;5010758;28;20049;-64
2023/09/14 03:20:55;;;;;;;8.00;3.80;;;11.70;99.90;;;;;;5011384;28;20046;-65
2023/09/14 03:23:22;;;;;;;5.53;3.63;;;11.70;99.90;;;;;;5010845;28;20108;-65
2023/09/14 03:25:49;;;;;;;7.72;3.47;;;11.70;99.90;;;;;;4995514;28;20050;-65
2023/09/14 03:28:16;;;;;;;4.75;3.30;;;11.80;99.90;;;;;;4991317;28;20104;-65
2023/09/14 03:30:42;;;;;;;5.65;3.15;;;11.70;99.90;;;;;;4991788;28;20471;-65
2023/09/14 03:33:09;;;;;;;5.45;2.83;;;11.80;99.90;;;;;;4990425;28;20382;-65
2023/09/14 03:35:36;;;;;;;5.32;3.20;;;11.70;99.90;;;;;;5005454;28;20053;-65
2023/09/14 03:38:02;;;;;;;5.25;3.55;;;11.60;99.90;;;;;;5011074;28;20050;-66
2023/09/14 03:40:29;;;;;;;5.22;3.80;;;11.50;99.90;;;;;;5011416;28;20054;-64
2023/09/14 03:42:55;;;;;;;7.45;3.53;;;11.40;99.90;;;;;;5011213;28;20050;-65
2023/09/14 03:45:21;;;;;;;8.52;3.20;;;11.40;99.90;;;;;;4999166;28;20077;-65
2023/09/14 03:47:50;;;;;;;4.70;3.08;;;11.30;99.90;;;;;;4990982;28;20050;-65
2023/09/14 03:50:17;;;;;;;4.63;2.90;;;11.30;99.90;;;;;;4991526;28;20116;-65
2023/09/14 03:52:43;;;;;;;4.90;3.28;;;11.20;99.90;;;;;;4991380;28;20062;-65
2023/09/14 03:55:09;;;;;;;7.03;3.40;;;11.10;99.90;;;;;;5001621;28;20045;-65
2023/09/14 03:57:36;;;;;;;4.43;3.10;;;11.20;99.90;;;;;;5010511;28;20054;-65
2023/09/14 04:00:04;;;;;;;5.72;3.50;;;11.20;99.90;;;;;;5010412;28;20501;-66
2023/09/14 04:02:31;;;;;;;6.90;3.47;;;11.20;99.90;;;;;;5011174;28;20435;-66
2023/09/14 04:04:57;;;;;;;6.00;3.40;;;11.20;99.90;;;;;;5002173;28;20046;-65
2023/09/14 04:07:23;;;;;;;6.53;3.75;;;11.20;99.90;;;;;;4991273;28;20054;-65
2023/09/14 04:09:49;;;;;;;4.53;3.50;;;11.00;99.90;;;;;;4991552;28;20117;-65
2023/09/14 04:12:16;;;;;;;4.68;3.00;;;11.00;99.90;;;;;;4991362;28;20112;-65
2023/09/14 04:14:42;;;;;;;7.38;3.65;;;11.00;99.90;;;;;;4997270;28;20111;-65
2023/09/14 04:17:09;;;;;;;6.47;3.47;;;10.80;99.90;;;;;;5010459;28;20058;-65
2023/09/14 04:19:35;;;;;;;6.68;3.22;;;10.90;99.90;;;;;;5010860;28;20096;-65
2023/09/14 04:22:01;;;;;;;5.38;3.25;;;10.90;99.90;;;;;;5011086;28;20447;-65
2023/09/14 04:24:27;;;;;;;3.67;3.03;;;10.80;99.90;;;;;;5006052;28;20058;-65
2023/09/14 04:26:54;;;;;;;4.88;3.03;;;10.80;99.90;;;;;;4989564;28;20113;-65
2023/09/14 04:29:20;;;;;;;5.57;3.22;;;10.70;99.90;;;;;;4991178;28;20117;-66
2023/09/14 04:31:46;;;;;;;4.45;2.67;;;10.80;99.90;;;;;;4991257;28;20422;-65
2023/09/14 04:34:12;;;;;;;6.10;3.10;;;10.70;99.90;;;;;;4995903;28;20050;-65
2023/09/14 04:36:39;;;;;;;4.70;2.85;;;10.70;99.90;;;;;;5012973;28;20459;-65
2023/09/14 04:39:05;;;;;;;5.80;2.95;;;10.60;99.90;;;;;;5014282;28;20050;-65
2023/09/14 04:41:32;;;;;;;5.18;3.10;;;10.70;99.90;;;;;;5014404;28;20041;-66
2023/09/14 04:43:58;;;;;;;7.55;2.92;;;10.70;99.90;;;;;;5011807;28;20072;-65
2023/09/14 04:46:25;;;;;;;4.93;3.20;;;10.60;99.90;;;;;;4974867;28;20105;-65
2023/09/14 04:48:51;;;;;;;6.07;3.53;;;10.60;99.90;;;;;;4975468;28;20057;-65
2023/09/14 04:51:17;;;;;;;5.75;2.97;;;10.70;99.90;;;;;;4974897;28;20368;-65
2023/09/14 04:53:43;;;;;;;5.28;3.58;;;10.70;99.90;;;;;;4975248;28;20094;-65
2023/09/14 04:56:10;;;;;;;5.50;3.80;;;10.60;99.90;;;;;;5011310;28;20082;-65
2023/09/14 04:58:36;;;;;;;7.50;3.60;;;10.60;99.90;;;;;;5013865;28;20132;-65
2023/09/14 05:01:03;;;;;;;7.00;3.63;;;10.60;99.90;;;;;;5007894;28;20232;-66
2023/09/14 05:03:29;;;;;;;6.15;4.00;;;10.50;99.90;;;;;;4985004;28;20100;-65
2023/09/14 05:05:55;;;;;;;6.70;3.75;;;10.60;99.90;;;;;;4988084;28;20054;-65
2023/09/14 05:08:22;;;;;;;5.15;3.28;;;10.60;99.90;;;;;;4983076;28;20138;-65
2023/09/14 05:10:49;;;;;;;7.22;3.85;;;10.60;99.90;;;;;;4983064;28;20062;-65
2023/09/14 05:13:18;;;;;;;4.35;3.03;;;10.50;99.90;;;;;;4983903;28;20351;-65
2023/09/14 05:15:45;;;;;;;7.63;3.33;;;10.50;99.90;;;;;;4982368;28;20055;-65
2023/09/14 05:18:11;;;;;;;5.85;3.33;;;10.60;99.90;;;;;;4983836;28;20062;-65
2023/09/14 05:20:46;;;;;;;6.40;3.85;;;10.50;99.90;;;;;;4984927;28;20044;-65
2023/09/14 05:23:12;;;;;;;9.98;4.07;;;10.50;99.90;;;;;;4994384;28;20060;-65
2023/09/14 05:25:40;;;;;;;6.65;3.33;;;10.50;99.90;;;;;;5002469;28;20145;-65
2023/09/14 05:28:08;;;;;;;5.38;3.90;;;10.60;99.90;;;;;;4992889;28;20046;-65
2023/09/14 05:30:35;;;;;;;7.03;3.90;;;10.60;99.90;;;;;;4991521;28;20148;-65
2023/09/14 05:33:01;;;;;;;8.30;3.80;;;10.70;99.90;;;;;;4992772;28;20046;-65
2023/09/14 05:35:27;;;;;;;5.50;3.40;;;10.80;99.90;;;;;;4993193;28;20050;-66
2023/09/14 05:37:54;;;;;;;5.60;3.58;;;10.80;99.90;;;;;;4993559;28;20064;-65
2023/09/14 05:40:20;;;;;;;8.18;4.32;;;10.90;99.90;;;;;;4992285;28;20058;-65
2023/09/14 05:42:46;;;;;;;6.80;4.18;;;11.00;99.90;;;;;;4992606;28;20046;-65
2023/09/14 05:45:13;;;;;;;10.73;4.13;;;11.10;99.90;;;;;;5002321;28;20634;-66
2023/09/14 05:47:39;;;;;;;10.60;4.30;;;11.20;99.90;;;;;;5012947;28;20049;-66
2023/09/14 05:50:10;;;;;;;7.47;4.40;;;11.40;99.90;;;;;;5008061;28;20056;-66
2023/09/14 05:52:36;;;;;;;7.55;3.35;;;11.60;99.90;;;;;;4992935;28;20356;-66
2023/09/14 05:55:06;;;;;;;8.07;4.35;;;11.80;99.90;;;;;;5000560;28;20102;-66
2023/09/14 05:57:32;;;;;;;8.30;4.38;;;12.10;99.90;;;;;;5012718;28;20053;-66
2023/09/14 05:59:59;;;;;;;10.45;4.22;;;12.30;99.90;;;;;;5013533;28;20458;-66
2023/09/14 06:02:26;;;;;;;8.88;4.97;;;12.50;99.90;;;;;;4992200;28;20043;-66
2023/09/14 06:04:53;;;;;;;10.43;4.93;;;12.80;99.90;;;;;;4990092;28;20145;-66
2023/09/14 06:07:19;;;;;;;5.88;4.22;;;12.90;99.90;;;;;;4993040;28;20053;-66
2023/09/14 06:09:45;;;;;;;6.43;4.15;;;13.10;99.90;;;;;;4992961;28;20042;-66
2023/09/14 06:12:12;;;;;;;6.03;4.63;;;13.40;99.90;;;;;;4992169;28;20100;-68
2023/09/14 06:14:38;;;;;;;7.55;4.97;;;13.60;99.90;;;;;;4989851;28;20105;-66
2023/09/14 06:17:05;;;;;;;6.00;4.32;;;13.80;99.90;;;;;;4989592;28;20042;-66
2023/09/14 06:19:31;;;;;;;9.00;4.30;;;14.00;99.90;;;;;;4992536;28;20042;-65
2023/09/14 06:21:58;;;;;;;7.47;4.22;;;14.00;99.90;;;;;;4993536;28;20121;-66
2023/09/14 06:24:24;;;;;;;6.57;4.65;;;14.20;99.90;;;;;;4995990;28;20046;-65
2023/09/14 06:26:50;;;;;;;9.18;4.90;;;14.40;99.90;;;;;;5010103;28;20053;-66
2023/09/14 06:29:17;;;;;;;8.75;4.18;;;14.50;99.90;;;;;;4991568;28;20455;-66
2023/09/14 06:31:43;;;;;;;8.07;4.30;;;14.70;99.90;;;;;;4991240;28;20046;-65
2023/09/14 06:34:10;;;;;;;9.10;4.03;;;14.90;99.90;;;;;;4992679;28;20375;-65
2023/09/14 06:36:36;;;;;;;6.13;4.28;;;15.20;99.90;;;;;;4989319;28;20098;-64
2023/09/14 06:39:03;;;;;;;6.93;3.70;;;15.60;99.90;;;;;;4992781;28;20076;-65
2023/09/14 06:41:31;;;;;;;8.00;3.90;;;15.80;99.90;;;;;;4991714;28;20074;-64
2023/09/14 06:43:58;;;;;;;10.63;4.45;;;15.80;99.90;;;;;;4992590;28;20056;-64
2023/09/14 06:46:24;;;;;;;6.72;3.90;;;15.90;99.90;;;;;;5002523;28;20124;-65
2023/09/14 06:48:50;;;;;;;8.88;4.25;;;16.00;99.90;;;;;;5003770;28;20069;-64
2023/09/14 06:51:16;;;;;;;6.85;3.33;;;16.10;99.90;;;;;;4999585;28;20096;-65
2023/09/14 06:53:43;;;;;;;6.18;3.80;;;15.90;99.90;;;;;;5012263;28;20466;-65
2023/09/14 06:56:13;;;;;;;6.60;3.47;;;15.90;99.90;;;;;;5006496;28;20605;-64
2023/09/14 06:58:39;;;;;;;6.75;3.88;;;15.80;99.90;;;;;;4996901;28;20081;-64
2023/09/14 07:01:06;;;;;;;8.93;3.80;;;15.70;99.90;;;;;;4992654;28;20061;-66
2023/09/14 07:03:34;;;;;;;7.38;3.20;;;15.70;99.90;;;;;;4995593;28;20050;-64
2023/09/14 07:06:01;;;;;;;9.68;3.10;;;15.60;99.90;;;;;;4996589;28;20382;-64
2023/09/14 07:08:28;;;;;;;8.32;3.80;;;15.60;99.90;;;;;;4992684;28;20125;-65
2023/09/14 07:10:55;;;;;;;6.70;3.33;;;15.70;99.90;;;;;;4991828;28;20430;-64
2023/09/14 07:13:21;;;;;;;6.40;3.80;;;15.70;99.90;;;;;;4992817;28;20058;-64
2023/09/14 07:15:48;;;;;;;7.30;3.97;;;15.80;99.90;;;;;;5006130;28;20467;-64
2023/09/14 07:18:26;;;;;;;7.57;3.40;;;15.80;99.90;;;;;;5001395;28;20065;-64
2023/09/14 07:20:53;;;;;;;9.98;3.22;;;15.80;99.90;;;;;;4982182;28;20049;-64
2023/09/14 07:23:19;;;;;;;6.10;3.13;;;15.90;99.90;;;;;;4993758;28;20042;-64
2023/09/14 07:25:48;;;;;;;6.32;3.05;;;16.00;99.90;;;;;;4993027;28;20117;-64
2023/09/14 07:28:18;;;;;;;6.10;3.50;;;16.00;99.90;;;;;;4992280;28;20069;-64
2023/09/14 07:30:46;;;;;;;7.93;4.03;;;16.10;99.90;;;;;;4993001;28;20054;-64
2023/09/14 07:33:14;;;;;;;7.30;3.85;;;16.20;99.90;;;;;;4992940;28;20069;-64
2023/09/14 07:35:40;;;;;;;6.95;3.70;;;16.30;99.90;;;;;;5005100;28;20045;-63
2023/09/14 07:38:08;;;;;;;7.65;3.13;;;16.30;99.90;;;;;;5011625;28;20054;-64
2023/09/14 07:40:37;;;;;;;10.75;4.10;;;16.40;99.90;;;;;;5012158;28;20064;-64
2023/09/14 07:43:03;;;;;;;9.00;3.47;;;16.50;99.90;;;;;;5011520;28;20390;-64
2023/09/14 07:45:33;;;;;;;6.40;3.47;;;16.60;99.90;;;;;;5003963;28;20054;-64
2023/09/14 07:48:01;;;;;;;7.78;3.67;;;16.80;99.90;;;;;;4991462;28;20046;-65
2023/09/14 07:50:27;;;;;;;6.47;3.25;;;16.80;99.90;;;;;;4982145;28;20047;-64
2023/09/14 07:52:53;;;;;;;5.75;3.00;;;17.00;99.90;;;;;;4977760;28;20368;-64
2023/09/14 07:55:20;;;;;;;7.38;3.80;;;17.00;99.90;;;;;;4985363;28;20054;-64
2023/09/14 07:57:46;;;;;;;5.55;3.83;;;17.00;99.90;;;;;;4992352;28;20094;-64
2023/09/14 08:00:13;;;;;;;5.75;3.22;;;17.20;99.90;;;;;;4992346;28;20621;-64
2023/09/14 08:02:39;;;;;;;8.68;3.75;;;17.20;99.90;;;;;;4992554;28;20058;-64
2023/09/14 08:05:06;;;;;;;7.05;3.20;;;17.40;99.90;;;;;;4999439;28;20501;-64
2023/09/14 08:07:32;;;;;;;7.00;3.38;;;17.50;99.90;;;;;;5011965;28;20050;-64
2023/09/14 08:09:58;;;;;;;6.13;2.72;;;17.50;99.90;;;;;;5015942;28;20371;-64
2023/09/14 08:12:25;;;;;;;8.35;2.88;;;17.70;99.90;;;;;;5015600;28;20351;-64
2023/09/14 08:14:51;;;;;;;7.55;2.80;;;17.60;99.90;;;;;;5009778;28;20128;-64
2023/09/14 08:17:17;;;;;;;8.20;3.20;;;17.70;99.90;;;;;;4996129;28;20113;-64
2023/09/14 08:19:43;;;;;;;6.93;3.25;;;17.70;99.90;;;;;;4996221;28;20050;-65
2023/09/14 08:22:10;;;;;;;7.20;2.63;;;17.80;99.90;;;;;;4996035;28;20050;-64
2023/09/14 08:24:36;;;;;;;6.45;3.30;;;17.90;99.90;;;;;;4999336;28;20104;-64
2023/09/14 08:27:02;;;;;;;11.25;3.78;;;17.90;99.90;;;;;;5015173;28;20046;-64
2023/09/14 08:29:30;;;;;;;5.90;3.03;;;18.00;99.90;;;;;;5015712;28;20050;-65
2023/09/14 08:31:56;;;;;;;5.68;2.78;;;18.10;99.90;;;;;;5015044;28;20057;-64
2023/09/14 08:34:22;;;;;;;5.97;2.60;;;18.10;99.90;;;;;;5013304;28;20396;-64
2023/09/14 08:36:48;;;;;;;5.72;2.85;;;18.10;99.90;;;;;;4995319;28;20093;-64
2023/09/14 08:39:15;;;;;;;5.30;3.33;;;18.20;99.90;;;;;;4995798;28;20058;-64
2023/09/14 08:41:41;;;;;;;7.22;2.95;;;18.20;99.90;;;;;;4995709;28;20061;-64
2023/09/14 08:44:08;;;;;;;5.18;2.58;;;18.10;99.90;;;;;;4995643;28;20054;-64
2023/09/14 08:46:35;;;;;;;7.55;2.83;;;18.10;99.90;;;;;;5014177;28;20046;-65
2023/09/14 08:49:05;;;;;;;8.73;2.65;;;18.10;99.90;;;;;;5014715;28;20049;-64
2023/09/14 08:51:34;;;;;;;9.65;2.40;;;18.10;99.90;;;;;;5015161;28;20050;-65
2023/09/14 08:54:01;;;;;;;5.72;2.22;;;18.20;99.90;;;;;;5014897;28;20049;-64
2023/09/14 08:56:28;;;;;;;8.85;2.58;;;18.10;99.90;;;;;;5012332;28;20045;-64
2023/09/14 08:58:55;;;;;;;6.10;2.47;;;18.10;99.90;;;;;;5014791;28;20119;-64
2023/09/14 09:01:21;;;;;;;6.30;2.60;;;18.10;99.90;;;;;;5014775;28;20352;-64
2023/09/14 09:03:47;;;;;;;7.70;2.65;;;18.20;99.90;;;;;;5014706;28;20137;-64
2023/09/14 09:06:17;;;;;;;4.80;2.53;;;18.40;99.90;;;;;;4997939;28;20124;-64
2023/09/14 09:08:44;;;;;;;6.22;2.50;;;18.30;99.90;;;;;;4995133;28;20058;-64
2023/09/14 09:11:10;;;;;;;5.30;2.42;;;18.40;99.90;;;;;;4995337;28;20050;-64
2023/09/14 09:13:42;;;;;;;5.93;2.50;;;18.70;99.90;;;;;;4995144;28;20058;-64
2023/09/14 09:16:11;;;;;;;6.85;2.63;;;18.70;99.90;;;;;;5010041;28;20049;-64
2023/09/14 09:19:06;;;;;;;6.63;2.45;;;18.90;99.90;;;;;;5014765;28;20142;-64
2023/09/14 09:21:34;;;;;;;10.52;2.47;;;18.90;99.90;;;;;;5014595;28;20050;-65
2023/09/14 09:24:04;;;;;;;6.78;2.40;;;18.80;99.90;;;;;;5014856;28;20047;-64
2023/09/14 09:26:36;;;;;;;5.82;2.38;;;18.60;99.90;;;;;;4995204;28;20073;-64
2023/09/14 09:29:37;;;;;;;5.25;2.15;;;18.60;99.90;;;;;;4972992;28;20451;-63
2023/09/14 09:32:24;;;;;;;4.78;2.20;;;18.90;99.90;;;;;;4979296;28;20050;-64
2023/09/14 09:34:54;;;;;;;6.63;2.08;;;18.90;99.90;;;;;;4998888;28;20049;-65
2023/09/14 09:37:23;;;;;;;5.28;2.30;;;18.90;99.90;;;;;;4995801;28;20050;-64
2023/09/14 09:39:51;;;;;;;5.63;2.20;;;18.80;99.90;;;;;;5014082;28;20335;-64
2023/09/14 09:42:19;;;;;;;5.90;2.58;;;19.00;99.90;;;;;;5012976;28;20050;-65
2023/09/14 09:44:45;;;;;;;9.50;3.08;;;19.20;99.90;;;;;;5008966;28;20048;-64
2023/09/14 09:47:12;;;;;;;8.50;2.20;;;19.20;99.90;;;;;;5009189;28;20330;-64
2023/09/14 09:49:39;;;;;;;8.00;2.80;;;19.10;99.90;;;;;;4994520;28;20121;-65
2023/09/14 09:52:10;;;;;;;6.45;2.40;;;19.10;99.90;;;;;;4993592;28;20046;-64
2023/09/14 09:54:36;;;;;;;;;;;19.40;99.90;;;;;;4995577;28;20138;-64
2023/09/14 09:57:04;;;;;;;8.38;2.28;;;19.50;99.90;;;;;;4993955;28;19922;-64
2023/09/14 09:59:31;;;;;;;9.52;2.40;;;19.60;99.90;;;;;;4993941;28;20054;-64
2023/09/14 10:01:58;;;;;;;5.68;2.20;;;19.70;99.90;;;;;;4994169;28;20046;-64
2023/09/14 10:04:28;;;;;;;8.15;2.65;;;19.80;99.90;;;;;;4995025;28;20050;-65
2023/09/14 10:06:55;;;;;;;6.40;2.75;;;19.80;99.90;;;;;;5013695;28;20068;-65
2023/09/14 10:09:24;;;;;;;4.95;2.20;;;19.80;99.90;;;;;;5013836;28;20637;-64
2023/09/14 10:11:51;;;;;;;7.05;2.65;;;19.80;99.90;;;;;;5013737;28;20108;-64
2023/09/14 10:14:23;;;;;;;6.10;2.47;;;19.90;99.90;;;;;;5012891;28;20057;-64
2023/09/14 10:16:52;;;;;;;5.63;2.25;;;19.80;99.90;;;;;;4993820;28;20447;-64
2023/09/14 10:19:20;;;;;;;5.63;2.00;;;19.90;99.90;;;;;;4993816;28;20054;-65
2023/09/14 10:21:48;;;;;;;6.90;2.65;;;19.80;99.90;;;;;;4993699;28;20065;-64
2023/09/14 10:24:15;;;;;;;4.65;2.38;;;19.80;99.90;;;;;;4993845;28;20054;-64
2023/09/14 10:26:44;;;;;;;6.32;2.00;;;19.80;99.90;;;;;;5012735;28;20107;-64
2023/09/14 10:29:10;;;;;;;7.05;2.33;;;20.00;99.90;;;;;;5012109;28;20493;-64
2023/09/14 10:31:38;;;;;;;6.72;2.40;;;20.00;99.90;;;;;;5012418;28;20111;-64
2023/09/14 10:34:05;;;;;;;6.85;2.42;;;19.90;99.90;;;;;;5012789;28;20594;-65
2023/09/14 10:36:32;;;;;;;12.05;3.60;;;20.00;99.90;;;;;;4994588;28;20069;-64
2023/09/14 10:39:00;;;;;;;9.45;2.55;;;20.00;99.90;;;;;;4992565;28;20057;-64
2023/09/14 10:41:27;;;;;;;6.57;2.40;;;20.00;99.90;;;;;;4993059;28;20062;-64
2023/09/14 10:43:54;;;;;;;5.38;2.75;;;20.00;99.90;;;;;;4992867;28;20042;-64
2023/09/14 10:46:25;;;;;;;5.72;2.38;;;20.10;99.90;;;;;;5008827;28;20046;-64
2023/09/14 10:48:55;;;;;;;7.30;2.70;;;19.80;99.90;;;;;;5011674;28;20467;-64
2023/09/14 10:51:22;;;;;;;7.07;2.45;;;19.70;99.90;;;;;;5012607;28;20054;-63
2023/09/14 10:53:49;;;;;;;7.95;3.10;;;19.80;99.90;;;;;;5012033;28;20153;-64
2023/09/14 10:56:20;;;;;;;6.05;2.22;;;20.00;99.90;;;;;;5010762;28;20049;-64
2023/09/14 10:58:51;;;;;;;5.45;2.47;;;20.20;99.90;;;;;;4994633;28;20454;-64
2023/09/14 11:01:26;;;;;;;6.18;2.28;;;20.30;99.90;;;;;;4991793;28;20108;-64
2023/09/14 11:04:13;;;;;;;5.90;2.42;;;20.30;99.90;;;;;;4972651;28;20379;-64
2023/09/14 11:06:48;;;;;;;6.38;2.65;;;20.30;99.90;;;;;;5011706;28;20050;-63
2023/09/14 11:09:18;;;;;;;7.38;2.92;;;19.90;99.90;;;;;;5012028;28;20042;-64
2023/09/14 11:11:46;;;;;;;6.63;2.53;;;19.70;99.90;;;;;;5011087;28;20097;-64
2023/09/14 11:14:14;;;;;;;5.85;2.10;;;19.70;99.90;;;;;;5012505;28;20377;-64
2023/09/14 11:16:44;;;;;;;6.07;2.40;;;19.70;99.90;;;;;;4992177;28;20046;-64
2023/09/14 11:19:10;;;;;;;5.25;2.10;;;19.90;99.90;;;;;;4992180;28;20359;-64
2023/09/14 11:21:36;;;;;;;5.85;2.78;;;20.10;99.90;;;;;;4992587;28;20062;-64
2023/09/14 11:24:03;;;;;;;4.65;2.67;;;20.20;99.90;;;;;;4992692;28;20046;-64
2023/09/14 11:26:35;;;;;;;6.88;2.80;;;20.20;99.90;;;;;;5003277;28;20046;-64
2023/09/14 11:29:02;;;;;;;6.55;2.80;;;20.20;99.90;;;;;;4991635;28;20073;-63
2023/09/14 11:31:29;;;;;;;7.60;3.05;;;20.40;99.90;;;;;;4992614;28;20061;-64
2023/09/14 11:33:56;;;;;;;6.40;3.20;;;20.60;99.90;;;;;;4991635;28;20062;-64
2023/09/14 11:36:27;;;;;;;6.60;2.63;;;20.70;99.90;;;;;;5008605;28;20061;-64
2023/09/14 11:38:54;;;;;;;5.05;3.00;;;20.70;99.90;;;;;;5011363;28;20062;-63
2023/09/14 11:41:37;;;;;;;5.22;2.50;;;20.50;99.90;;;;;;4991488;28;20082;-64
2023/09/14 11:44:04;;;;;;;5.60;2.97;;;20.40;99.90;;;;;;4991033;28;20133;-64
2023/09/14 11:46:33;;;;;;;6.13;2.80;;;20.40;99.90;;;;;;5009469;28;20042;-63
2023/09/14 11:48:59;;;;;;;8.50;2.70;;;20.20;99.90;;;;;;5011213;28;20053;-64
2023/09/14 11:51:27;;;;;;;10.45;3.45;;;20.20;99.90;;;;;;5011496;28;20058;-64
2023/09/14 11:53:59;;;;;;;8.55;3.03;;;20.30;99.90;;;;;;5011641;28;20061;-64
2023/09/14 11:56:33;;;;;;;6.00;2.78;;;20.50;99.90;;;;;;5011276;28;20084;-63
2023/09/14 11:59:01;;;;;;;6.63;2.67;;;20.60;99.90;;;;;;5011427;28;20082;-63
2023/09/14 12:01:30;;;;;;;5.80;2.80;;;20.80;99.90;;;;;;5011403;28;20172;-64
2023/09/14 12:03:58;;;;;;;7.05;2.38;;;20.60;99.90;;;;;;5010359;28;20133;-64
2023/09/14 12:06:26;;;;;;;6.22;2.70;;;20.80;99.90;;;;;;4994889;28;20340;-64
2023/09/14 12:08:52;;;;;;;6.82;3.08;;;20.90;99.90;;;;;;4991665;28;20058;-64
2023/09/14 12:11:21;;;;;;;7.55;2.75;;;20.90;99.90;;;;;;4992310;28;20043;-63
2023/09/14 12:13:49;;;;;;;7.20;2.47;;;21.20;99.90;;;;;;4992406;28;20056;-64
2023/09/14 12:16:21;;;;;;;7.72;2.70;;;21.20;99.90;;;;;;5007450;28;20084;-64
2023/09/14 12:18:48;;;;;;;;;;;21.30;99.90;;;;;;5012007;28;20156;-64
2023/09/14 12:21:14;;;;;;;5.80;2.30;;;21.20;99.90;;;;;;5011746;28;20374;-63
2023/09/14 12:23:43;;;;;;;9.02;2.67;;;21.00;99.90;;;;;;5011301;28;20438;-63
2023/09/14 12:26:13;;;;;;;6.35;2.80;;;21.00;99.90;;;;;;4996955;28;20050;-63
2023/09/14 12:28:55;;;;;;;6.78;3.00;;;20.90;99.90;;;;;;4991487;28;20120;-64
2023/09/14 12:31:23;;;;;;;6.35;2.58;;;20.90;99.90;;;;;;4994610;28;20813;-63
2023/09/14 12:33:49;;;;;;;6.32;2.83;;;20.90;99.90;;;;;;5011406;28;20054;-63
2023/09/14 12:36:19;;;;;;;5.57;2.50;;;20.90;99.70;;;;;;4995889;28;20062;-64
2023/09/14 12:38:48;;;;;;;5.57;2.80;;;21.00;99.90;;;;;;4991454;28;20069;-64
2023/09/14 12:41:15;;;;;;;9.30;3.13;;;21.00;99.90;;;;;;4991860;28;20081;-63
2023/09/14 12:43:43;;;;;;;6.25;2.95;;;21.00;99.90;;;;;;4991458;28;20058;-64
2023/09/14 12:46:11;;;;;;;6.85;2.50;;;21.00;99.90;;;;;;5005344;28;20046;-64
2023/09/14 12:48:39;;;;;;;4.90;2.65;;;21.00;99.90;;;;;;5010634;28;20053;-64
2023/09/14 12:51:05;;;;;;;7.18;3.35;;;20.90;99.90;;;;;;5011158;28;20076;-63